sensor_id;sensor_type;location;lat;lon;timestamp;temperature;humidity
1181;DHT22;579;52.046;8.532;2023-02-28T00:01:24;1.20;1.00
1181;DHT22;579;52.046;8.532;2023-02-28T00:03:51;1.30;1.00
1181;DHT22;579;52.046;8.532;2023-02-28T00:06:18;1.30;1.00
1181;DHT22;579;52.046;8.532;2023-02-28T00:13:49;1.90;1.00
1181;DHT22;579;52.046;8.532;2023-02-28T00:16:17;1.00;1.00
1181;DHT22;579;52.046;8.532;2023-02-28T00:18:45;1.10;1.00
1181;DHT22;579;52.046;8.532;2023-02-28T00:21:13;1.10;1.00
1181;DHT22;579;52.046;8.532;2023-02-28T00:23:39;1.30;1.00
1181;DHT22;579;52.046;8.532;2023-02-28T00:26:05;1.30;1.00
1181;DHT22;579;52.046;8.532;2023-02-28T00:28:32;1.30;1.00
1181;DHT22;579;52.046;8.532;2023-02-28T00:36:07;1.10;1.00
1181;DHT22;579;52.046;8.532;2023-02-28T00:38:35;1.10;1.00
1181;DHT22;579;52.046;8.532;2023-02-28T00:41:02;1.10;1.00
1181;DHT22;579;52.046;8.532;2023-02-28T00:43:31;1.20;1.00
1181;DHT22;579;52.046;8.532;2023-02-28T00:45:57;1.10;1.00
1181;DHT22;579;52.046;8.532;2023-02-28T00:48:24;1.20;1.00
1181;DHT22;579;52.046;8.532;2023-02-28T00:50:50;1.30;1.00
1181;DHT22;579;52.046;8.532;2023-02-28T00:56:10;1.20;1.00
1181;DHT22;579;52.046;8.532;2023-02-28T00:58:36;1.20;1.00
1181;DHT22;579;52.046;8.532;2023-02-28T01:01:03;1.20;1.00
1181;DHT22;579;52.046;8.532;2023-02-28T01:03:30;1.10;1.00
1181;DHT22;579;52.046;8.532;2023-02-28T01:05:56;1.00;1.00
1181;DHT22;579;52.046;8.532;2023-02-28T01:08:23;1.30;1.00
1181;DHT22;579;52.046;8.532;2023-02-28T01:10:49;1.10;1.00
1181;DHT22;579;52.046;8.532;2023-02-28T01:16:13;1.00;1.00
1181;DHT22;579;52.046;8.532;2023-02-28T01:18:40;1.00;1.00
1181;DHT22;579;52.046;8.532;2023-02-28T01:21:08;1.00;1.00
1181;DHT22;579;52.046;8.532;2023-02-28T01:23:36;1.00;1.00
1181;DHT22;579;52.046;8.532;2023-02-28T01:26:04;0.90;1.00
1181;DHT22;579;52.046;8.532;2023-02-28T01:28:31;0.80;1.00
1181;DHT22;579;52.046;8.532;2023-02-28T01:30:57;0.70;1.00
1181;DHT22;579;52.046;8.532;2023-02-28T01:33:24;0.70;1.00
1181;DHT22;579;52.046;8.532;2023-02-28T01:40:52;0.60;1.00
1181;DHT22;579;52.046;8.532;2023-02-28T01:43:22;0.60;1.00
1181;DHT22;579;52.046;8.532;2023-02-28T01:45:49;0.50;1.00
1181;DHT22;579;52.046;8.532;2023-02-28T01:48:16;0.50;1.00
1181;DHT22;579;52.046;8.532;2023-02-28T01:50:45;0.50;1.00
1181;DHT22;579;52.046;8.532;2023-02-28T01:53:15;0.40;1.00
1181;DHT22;579;52.046;8.532;2023-02-28T01:55:46;0.60;1.00
1181;DHT22;579;52.046;8.532;2023-02-28T01:58:14;0.40;1.00
1181;DHT22;579;52.046;8.532;2023-02-28T02:05:46;0.30;1.00
1181;DHT22;579;52.046;8.532;2023-02-28T02:08:16;0.50;1.00
1181;DHT22;579;52.046;8.532;2023-02-28T02:10:45;0.50;1.00
1181;DHT22;579;52.046;8.532;2023-02-28T02:16:28;0.30;1.00
1181;DHT22;579;52.046;8.532;2023-02-28T02:19:13;0.40;1.00
1181;DHT22;579;52.046;8.532;2023-02-28T02:22:02;0.30;1.00
1181;DHT22;579;52.046;8.532;2023-02-28T02:28:01;0.50;1.00
1181;DHT22;579;52.046;8.532;2023-02-28T02:30:57;0.40;1.00
1181;DHT22;579;52.046;8.532;2023-02-28T02:37:19;0.40;1.00
1181;DHT22;579;52.046;8.532;2023-02-28T02:40:02;0.50;1.00
1181;DHT22;579;52.046;8.532;2023-02-28T02:42:39;0.60;1.00
1181;DHT22;579;52.046;8.532;2023-02-28T02:50:18;0.40;1.00
1181;DHT22;579;52.046;8.532;2023-02-28T02:52:48;0.30;1.00
1181;DHT22;579;52.046;8.532;2023-02-28T02:55:18;0.30;1.00
1181;DHT22;579;52.046;8.532;2023-02-28T02:57:48;0.20;1.00
1181;DHT22;579;52.046;8.532;2023-02-28T03:00:17;0.30;1.00
1181;DHT22;579;52.046;8.532;2023-02-28T03:02:48;0.00;1.00
1181;DHT22;579;52.046;8.532;2023-02-28T03:05:19;0.00;1.00
1181;DHT22;579;52.046;8.532;2023-02-28T03:13:05;0.20;1.00
1181;DHT22;579;52.046;8.532;2023-02-28T03:15:47;0.00;1.00
1181;DHT22;579;52.046;8.532;2023-02-28T03:18:26;0.10;1.00
1181;DHT22;579;52.046;8.532;2023-02-28T03:21:03;-0.10;1.00
1181;DHT22;579;52.046;8.532;2023-02-28T03:23:40;-0.20;1.00
1181;DHT22;579;52.046;8.532;2023-02-28T03:26:16;-0.30;1.00
1181;DHT22;579;52.046;8.532;2023-02-28T03:28:52;-0.40;1.00
1181;DHT22;579;52.046;8.532;2023-02-28T03:36:29;0.00;1.00
1181;DHT22;579;52.046;8.532;2023-02-28T03:39:00;-0.10;1.00
1181;DHT22;579;52.046;8.532;2023-02-28T03:41:35;-0.90;1.00
1181;DHT22;579;52.046;8.532;2023-02-28T03:44:07;-0.20;1.00
1181;DHT22;579;52.046;8.532;2023-02-28T03:46:37;-0.20;1.00
1181;DHT22;579;52.046;8.532;2023-02-28T03:49:11;-0.30;1.00
1181;DHT22;579;52.046;8.532;2023-02-28T03:51:42;-0.40;1.00
1181;DHT22;579;52.046;8.532;2023-02-28T03:59:17;-0.30;1.00
1181;DHT22;579;52.046;8.532;2023-02-28T04:01:47;-0.10;1.00
1181;DHT22;579;52.046;8.532;2023-02-28T04:04:14;0.10;1.00
1181;DHT22;579;52.046;8.532;2023-02-28T04:06:42;-0.20;1.00
1181;DHT22;579;52.046;8.532;2023-02-28T04:09:10;-0.50;1.00
1181;DHT22;579;52.046;8.532;2023-02-28T04:11:39;-0.50;1.00
1181;DHT22;579;52.046;8.532;2023-02-28T04:14:08;-0.60;1.00
1181;DHT22;579;52.046;8.532;2023-02-28T04:19:43;-0.60;1.00
1181;DHT22;579;52.046;8.532;2023-02-28T04:22:09;-0.50;1.00
1181;DHT22;579;52.046;8.532;2023-02-28T04:24:36;-0.60;1.00
1181;DHT22;579;52.046;8.532;2023-02-28T04:27:06;-0.70;1.00
1181;DHT22;579;52.046;8.532;2023-02-28T04:29:34;-0.80;1.00
1181;DHT22;579;52.046;8.532;2023-02-28T04:32:02;-0.80;1.00
1181;DHT22;579;52.046;8.532;2023-02-28T04:34:29;-0.70;1.00
1181;DHT22;579;52.046;8.532;2023-02-28T04:36:58;-0.50;1.00
1181;DHT22;579;52.046;8.532;2023-02-28T04:44:31;-0.60;1.00
1181;DHT22;579;52.046;8.532;2023-02-28T04:46:57;-0.80;1.00
1181;DHT22;579;52.046;8.532;2023-02-28T04:49:24;-0.90;1.00
1181;DHT22;579;52.046;8.532;2023-02-28T04:51:50;-0.90;1.00
1181;DHT22;579;52.046;8.532;2023-02-28T04:54:16;-0.90;1.00
1181;DHT22;579;52.046;8.532;2023-02-28T04:56:43;-0.90;1.00
1181;DHT22;579;52.046;8.532;2023-02-28T04:59:09;-0.60;1.00
1181;DHT22;579;52.046;8.532;2023-02-28T05:01:36;-1.10;1.00
1181;DHT22;579;52.046;8.532;2023-02-28T05:09:08;-1.10;1.00
1181;DHT22;579;52.046;8.532;2023-02-28T05:11:37;-0.60;1.00
1181;DHT22;579;52.046;8.532;2023-02-28T05:14:06;-0.90;1.00
1181;DHT22;579;52.046;8.532;2023-02-28T05:16:33;-1.10;1.00
1181;DHT22;579;52.046;8.532;2023-02-28T05:18:59;-1.20;1.00
1181;DHT22;579;52.046;8.532;2023-02-28T05:21:28;-1.30;1.00
1181;DHT22;579;52.046;8.532;2023-02-28T05:23:56;-1.20;1.00
1181;DHT22;579;52.046;8.532;2023-02-28T05:26:25;-1.10;1.00
1181;DHT22;579;52.046;8.532;2023-02-28T05:33:43;-1.10;1.00
1181;DHT22;579;52.046;8.532;2023-02-28T05:36:09;-1.20;1.00
1181;DHT22;579;52.046;8.532;2023-02-28T05:38:35;-1.30;1.00
1181;DHT22;579;52.046;8.532;2023-02-28T05:41:05;-1.10;1.00
1181;DHT22;579;52.046;8.532;2023-02-28T05:43:32;-1.10;1.00
1181;DHT22;579;52.046;8.532;2023-02-28T05:45:59;-1.10;1.00
1181;DHT22;579;52.046;8.532;2023-02-28T05:48:27;-1.20;1.00
1181;DHT22;579;52.046;8.532;2023-02-28T05:50:54;-0.90;1.00
1181;DHT22;579;52.046;8.532;2023-02-28T05:58:21;-1.20;1.00
1181;DHT22;579;52.046;8.532;2023-02-28T06:00:47;-1.30;1.00
1181;DHT22;579;52.046;8.532;2023-02-28T06:03:14;-1.10;1.00
1181;DHT22;579;52.046;8.532;2023-02-28T06:05:40;-1.30;1.00
1181;DHT22;579;52.046;8.532;2023-02-28T06:08:06;-1.30;1.00
1181;DHT22;579;52.046;8.532;2023-02-28T06:10:32;-1.20;1.00
1181;DHT22;579;52.046;8.532;2023-02-28T06:12:59;-1.20;1.00
1181;DHT22;579;52.046;8.532;2023-02-28T06:20:39;-1.30;1.00
1181;DHT22;579;52.046;8.532;2023-02-28T06:23:05;-1.10;1.00
1181;DHT22;579;52.046;8.532;2023-02-28T06:25:31;-1.10;1.00
1181;DHT22;579;52.046;8.532;2023-02-28T06:27:57;-1.20;1.00
1181;DHT22;579;52.046;8.532;2023-02-28T06:30:24;-1.20;1.00
1181;DHT22;579;52.046;8.532;2023-02-28T06:32:52;-1.20;1.00
1181;DHT22;579;52.046;8.532;2023-02-28T06:35:18;-1.10;1.00
1181;DHT22;579;52.046;8.532;2023-02-28T06:40:25;-1.10;1.00
1181;DHT22;579;52.046;8.532;2023-02-28T06:42:52;-1.10;1.00
1181;DHT22;579;52.046;8.532;2023-02-28T06:45:18;-1.20;1.00
1181;DHT22;579;52.046;8.532;2023-02-28T06:47:44;-1.20;1.00
1181;DHT22;579;52.046;8.532;2023-02-28T06:50:11;-1.30;1.00
1181;DHT22;579;52.046;8.532;2023-02-28T06:52:38;-1.20;1.00
1181;DHT22;579;52.046;8.532;2023-02-28T06:55:06;-1.10;1.00
1181;DHT22;579;52.046;8.532;2023-02-28T07:00:14;-1.00;1.00
1181;DHT22;579;52.046;8.532;2023-02-28T07:02:41;-1.00;1.00
1181;DHT22;579;52.046;8.532;2023-02-28T07:05:08;-0.70;1.00
1181;DHT22;579;52.046;8.532;2023-02-28T07:07:36;-0.70;1.00
1181;DHT22;579;52.046;8.532;2023-02-28T07:10:04;-0.60;1.00
1181;DHT22;579;52.046;8.532;2023-02-28T07:12:31;-0.70;1.00
1181;DHT22;579;52.046;8.532;2023-02-28T07:14:57;-0.60;1.00
1181;DHT22;579;52.046;8.532;2023-02-28T07:20:44;-0.30;1.00
1181;DHT22;579;52.046;8.532;2023-02-28T07:23:10;-0.40;1.00
1181;DHT22;579;52.046;8.532;2023-02-28T07:25:36;-0.40;1.00
1181;DHT22;579;52.046;8.532;2023-02-28T07:28:03;-0.40;1.00
1181;DHT22;579;52.046;8.532;2023-02-28T07:30:29;-0.30;1.00
1181;DHT22;579;52.046;8.532;2023-02-28T07:32:55;-0.30;1.00
1181;DHT22;579;52.046;8.532;2023-02-28T07:35:21;-0.20;1.00
1181;DHT22;579;52.046;8.532;2023-02-28T07:37:49;-0.20;1.00
1181;DHT22;579;52.046;8.532;2023-02-28T07:40:43;0.10;1.00
1181;DHT22;579;52.046;8.532;2023-02-28T07:43:09;0.20;1.00
1181;DHT22;579;52.046;8.532;2023-02-28T07:45:35;0.40;1.00
1181;DHT22;579;52.046;8.532;2023-02-28T07:48:02;0.30;1.00
1181;DHT22;579;52.046;8.532;2023-02-28T07:50:28;0.50;1.00
1181;DHT22;579;52.046;8.532;2023-02-28T07:52:57;0.50;1.00
1181;DHT22;579;52.046;8.532;2023-02-28T07:55:23;0.50;1.00
1181;DHT22;579;52.046;8.532;2023-02-28T08:00:40;0.90;1.00
1181;DHT22;579;52.046;8.532;2023-02-28T08:03:08;1.10;1.00
1181;DHT22;579;52.046;8.532;2023-02-28T08:05:38;1.10;1.00
1181;DHT22;579;52.046;8.532;2023-02-28T08:08:05;1.30;1.00
1181;DHT22;579;52.046;8.532;2023-02-28T08:10:31;1.40;1.00
1181;DHT22;579;52.046;8.532;2023-02-28T08:12:57;1.80;1.00
1181;DHT22;579;52.046;8.532;2023-02-28T08:15:23;1.90;1.00
1181;DHT22;579;52.046;8.532;2023-02-28T08:17:50;2.30;1.00
1181;DHT22;579;52.046;8.532;2023-02-28T08:25:22;2.80;1.00
1181;DHT22;579;52.046;8.532;2023-02-28T08:27:51;3.00;1.00
1181;DHT22;579;52.046;8.532;2023-02-28T08:30:17;3.20;1.00
1181;DHT22;579;52.046;8.532;2023-02-28T08:32:43;3.80;1.00
1181;DHT22;579;52.046;8.532;2023-02-28T08:35:10;4.40;1.00
1181;DHT22;579;52.046;8.532;2023-02-28T08:37:36;4.00;1.00
1181;DHT22;579;52.046;8.532;2023-02-28T08:40:03;4.00;1.00
1181;DHT22;579;52.046;8.532;2023-02-28T08:42:32;4.30;1.00
1181;DHT22;579;52.046;8.532;2023-02-28T08:49:42;4.90;1.00
1181;DHT22;579;52.046;8.532;2023-02-28T08:52:08;5.50;1.00
1181;DHT22;579;52.046;8.532;2023-02-28T08:54:35;5.60;1.00
1181;DHT22;579;52.046;8.532;2023-02-28T08:57:02;5.80;1.00
1181;DHT22;579;52.046;8.532;2023-02-28T08:59:29;5.80;1.00
1181;DHT22;579;52.046;8.532;2023-02-28T09:01:56;5.90;1.00
1181;DHT22;579;52.046;8.532;2023-02-28T09:04:22;6.30;1.00
1181;DHT22;579;52.046;8.532;2023-02-28T09:09:28;6.50;1.00
1181;DHT22;579;52.046;8.532;2023-02-28T09:11:55;6.60;1.00
1181;DHT22;579;52.046;8.532;2023-02-28T09:14:21;7.00;1.00
1181;DHT22;579;52.046;8.532;2023-02-28T09:16:48;7.10;1.00
1181;DHT22;579;52.046;8.532;2023-02-28T09:19:14;7.40;1.00
1181;DHT22;579;52.046;8.532;2023-02-28T09:21:40;6.80;1.00
1181;DHT22;579;52.046;8.532;2023-02-28T09:24:07;8.20;1.00
1181;DHT22;579;52.046;8.532;2023-02-28T09:29:15;8.80;1.00
1181;DHT22;579;52.046;8.532;2023-02-28T09:31:42;9.00;1.00
1181;DHT22;579;52.046;8.532;2023-02-28T09:34:09;9.30;1.00
1181;DHT22;579;52.046;8.532;2023-02-28T09:36:36;9.50;1.00
1181;DHT22;579;52.046;8.532;2023-02-28T09:39:03;9.60;1.00
1181;DHT22;579;52.046;8.532;2023-02-28T09:41:36;9.80;1.00
1181;DHT22;579;52.046;8.532;2023-02-28T09:44:17;9.90;1.00
1181;DHT22;579;52.046;8.532;2023-02-28T09:46:51;9.70;1.00
1181;DHT22;579;52.046;8.532;2023-02-28T09:54:29;9.20;1.00
1181;DHT22;579;52.046;8.532;2023-02-28T09:57:01;8.60;1.00
1181;DHT22;579;52.046;8.532;2023-02-28T09:59:39;8.80;1.00
1181;DHT22;579;52.046;8.532;2023-02-28T10:05:27;9.90;1.00
1181;DHT22;579;52.046;8.532;2023-02-28T10:08:02;9.40;1.00
1181;DHT22;579;52.046;8.532;2023-02-28T10:14:14;9.60;1.00
1181;DHT22;579;52.046;8.532;2023-02-28T10:16:44;9.50;1.00
1181;DHT22;579;52.046;8.532;2023-02-28T10:19:15;9.40;1.00
1181;DHT22;579;52.046;8.532;2023-02-28T10:21:47;9.20;1.00
1181;DHT22;579;52.046;8.532;2023-02-28T10:24:21;9.20;1.00
1181;DHT22;579;52.046;8.532;2023-02-28T10:26:59;8.70;1.00
1181;DHT22;579;52.046;8.532;2023-02-28T10:29:27;8.80;1.00
1181;DHT22;579;52.046;8.532;2023-02-28T10:31:59;8.60;1.00
1181;DHT22;579;52.046;8.532;2023-02-28T10:39:37;8.50;1.00
1181;DHT22;579;52.046;8.532;2023-02-28T10:42:19;8.40;1.00
1181;DHT22;579;52.046;8.532;2023-02-28T10:44:47;8.10;1.00
1181;DHT22;579;52.046;8.532;2023-02-28T10:47:15;8.00;1.00
1181;DHT22;579;52.046;8.532;2023-02-28T10:49:47;8.10;1.00
1181;DHT22;579;52.046;8.532;2023-02-28T10:52:33;8.40;1.00
1181;DHT22;579;52.046;8.532;2023-02-28T10:57:56;8.60;1.00
1181;DHT22;579;52.046;8.532;2023-02-28T11:00:25;8.50;1.00
1181;DHT22;579;52.046;8.532;2023-02-28T11:02:57;8.50;1.00
1181;DHT22;579;52.046;8.532;2023-02-28T11:05:26;8.50;1.00
1181;DHT22;579;52.046;8.532;2023-02-28T11:07:56;9.20;1.00
1181;DHT22;579;52.046;8.532;2023-02-28T11:10:27;8.10;1.00
1181;DHT22;579;52.046;8.532;2023-02-28T11:12:56;8.00;1.00
1181;DHT22;579;52.046;8.532;2023-02-28T11:20:30;7.60;1.00
1181;DHT22;579;52.046;8.532;2023-02-28T11:22:58;7.90;1.00
1181;DHT22;579;52.046;8.532;2023-02-28T11:25:30;7.70;1.00
1181;DHT22;579;52.046;8.532;2023-02-28T11:27:59;7.80;1.00
1181;DHT22;579;52.046;8.532;2023-02-28T11:30:33;7.90;1.00
1181;DHT22;579;52.046;8.532;2023-02-28T11:33:01;7.90;1.00
1181;DHT22;579;52.046;8.532;2023-02-28T11:35:54;7.80;1.00
1181;DHT22;579;52.046;8.532;2023-02-28T11:43:42;8.30;1.00
1181;DHT22;579;52.046;8.532;2023-02-28T11:46:24;8.60;1.00
1181;DHT22;579;52.046;8.532;2023-02-28T11:49:01;8.50;1.00
1181;DHT22;579;52.046;8.532;2023-02-28T11:51:34;8.30;1.00
1181;DHT22;579;52.046;8.532;2023-02-28T11:54:17;8.20;1.00
1181;DHT22;579;52.046;8.532;2023-02-28T11:56:52;8.40;1.00
1181;DHT22;579;52.046;8.532;2023-02-28T12:02:24;8.80;1.00
1181;DHT22;579;52.046;8.532;2023-02-28T12:05:08;8.90;1.00
1181;DHT22;579;52.046;8.532;2023-02-28T12:07:45;9.10;1.00
1181;DHT22;579;52.046;8.532;2023-02-28T12:10:21;9.60;1.00
1181;DHT22;579;52.046;8.532;2023-02-28T12:12:57;9.70;1.00
1181;DHT22;579;52.046;8.532;2023-02-28T12:15:43;9.60;1.00
1181;DHT22;579;52.046;8.532;2023-02-28T12:21:25;9.80;1.00
1181;DHT22;579;52.046;8.532;2023-02-28T12:24:06;9.80;1.00
1181;DHT22;579;52.046;8.532;2023-02-28T12:26:41;10.00;1.00
1181;DHT22;579;52.046;8.532;2023-02-28T12:29:14;9.80;1.00
1181;DHT22;579;52.046;8.532;2023-02-28T12:31:48;9.90;1.00
1181;DHT22;579;52.046;8.532;2023-02-28T12:34:19;10.10;1.00
1181;DHT22;579;52.046;8.532;2023-02-28T12:36:48;10.20;1.00
1181;DHT22;579;52.046;8.532;2023-02-28T12:43:15;10.30;1.00
1181;DHT22;579;52.046;8.532;2023-02-28T12:45:45;10.00;1.00
1181;DHT22;579;52.046;8.532;2023-02-28T12:48:16;10.00;1.00
1181;DHT22;579;52.046;8.532;2023-02-28T12:50:45;10.10;1.00
1181;DHT22;579;52.046;8.532;2023-02-28T12:53:17;9.90;1.00
1181;DHT22;579;52.046;8.532;2023-02-28T12:55:54;10.00;1.00
1181;DHT22;579;52.046;8.532;2023-02-28T12:58:31;10.10;1.00
1181;DHT22;579;52.046;8.532;2023-02-28T13:06:43;9.90;1.00
1181;DHT22;579;52.046;8.532;2023-02-28T13:09:16;10.50;1.00
1181;DHT22;579;52.046;8.532;2023-02-28T13:11:44;10.60;1.00
1181;DHT22;579;52.046;8.532;2023-02-28T13:14:24;10.80;1.00
1181;DHT22;579;52.046;8.532;2023-02-28T13:16:57;11.70;1.00
1181;DHT22;579;52.046;8.532;2023-02-28T13:19:27;12.20;1.00
1181;DHT22;579;52.046;8.532;2023-02-28T13:21:56;12.50;1.00
1181;DHT22;579;52.046;8.532;2023-02-28T13:29:44;12.80;1.00
1181;DHT22;579;52.046;8.532;2023-02-28T13:32:33;13.50;1.00
1181;DHT22;579;52.046;8.532;2023-02-28T13:35:16;12.90;1.00
1181;DHT22;579;52.046;8.532;2023-02-28T13:44:11;11.90;1.00
1181;DHT22;579;52.046;8.532;2023-02-28T13:50:19;12.20;1.00
1181;DHT22;579;52.046;8.532;2023-02-28T13:53:01;12.10;1.00
1181;DHT22;579;52.046;8.532;2023-02-28T13:55:43;11.80;1.00
1181;DHT22;579;52.046;8.532;2023-02-28T13:58:27;11.80;1.00
1181;DHT22;579;52.046;8.532;2023-02-28T14:01:29;12.70;1.00
1181;DHT22;579;52.046;8.532;2023-02-28T14:10:26;12.30;1.00
1181;DHT22;579;52.046;8.532;2023-02-28T14:12:57;13.20;1.00
1181;DHT22;579;52.046;8.532;2023-02-28T14:15:39;13.40;1.00
1181;DHT22;579;52.046;8.532;2023-02-28T14:18:21;13.50;1.00
1181;DHT22;579;52.046;8.532;2023-02-28T14:20:54;13.60;1.00
1181;DHT22;579;52.046;8.532;2023-02-28T14:23:39;13.60;1.00
1181;DHT22;579;52.046;8.532;2023-02-28T14:32:15;15.10;1.00
1181;DHT22;579;52.046;8.532;2023-02-28T14:34:52;15.60;1.00
1181;DHT22;579;52.046;8.532;2023-02-28T14:37:24;16.10;1.00
1181;DHT22;579;52.046;8.532;2023-02-28T14:39:53;17.00;1.00
1181;DHT22;579;52.046;8.532;2023-02-28T14:42:29;17.40;1.00
1181;DHT22;579;52.046;8.532;2023-02-28T14:44:57;17.40;1.00
1181;DHT22;579;52.046;8.532;2023-02-28T14:50:05;17.50;1.00
1181;DHT22;579;52.046;8.532;2023-02-28T14:52:34;17.80;1.00
1181;DHT22;579;52.046;8.532;2023-02-28T14:55:04;18.90;1.00
1181;DHT22;579;52.046;8.532;2023-02-28T14:57:34;20.00;1.00
1181;DHT22;579;52.046;8.532;2023-02-28T15:00:03;20.60;1.00
1181;DHT22;579;52.046;8.532;2023-02-28T15:02:36;20.80;1.00
1181;DHT22;579;52.046;8.532;2023-02-28T15:09:09;22.20;1.00
1181;DHT22;579;52.046;8.532;2023-02-28T15:11:37;22.40;1.00
1181;DHT22;579;52.046;8.532;2023-02-28T15:14:04;22.50;1.00
1181;DHT22;579;52.046;8.532;2023-02-28T15:16:32;22.70;1.00
1181;DHT22;579;52.046;8.532;2023-02-28T15:19:02;22.70;1.00
1181;DHT22;579;52.046;8.532;2023-02-28T15:21:33;22.90;1.00
1181;DHT22;579;52.046;8.532;2023-02-28T15:24:04;23.20;1.00
1181;DHT22;579;52.046;8.532;2023-02-28T15:29:13;23.40;1.00
1181;DHT22;579;52.046;8.532;2023-02-28T15:31:44;23.30;1.00
1181;DHT22;579;52.046;8.532;2023-02-28T15:34:19;23.60;1.00
1181;DHT22;579;52.046;8.532;2023-02-28T15:36:46;24.40;1.00
1181;DHT22;579;52.046;8.532;2023-02-28T15:39:20;23.40;1.00
1181;DHT22;579;52.046;8.532;2023-02-28T15:41:48;24.50;1.00
1181;DHT22;579;52.046;8.532;2023-02-28T15:44:22;24.50;1.00
1181;DHT22;579;52.046;8.532;2023-02-28T15:46:59;24.30;1.00
1181;DHT22;579;52.046;8.532;2023-02-28T15:49:47;24.20;1.00
1181;DHT22;579;52.046;8.532;2023-02-28T15:52:18;24.10;1.00
1181;DHT22;579;52.046;8.532;2023-02-28T15:54:53;23.80;1.00
1181;DHT22;579;52.046;8.532;2023-02-28T15:57:22;23.40;1.00
1181;DHT22;579;52.046;8.532;2023-02-28T15:59:52;23.60;1.00
1181;DHT22;579;52.046;8.532;2023-02-28T16:02:21;22.60;1.00
1181;DHT22;579;52.046;8.532;2023-02-28T16:13:14;14.90;1.00
1181;DHT22;579;52.046;8.532;2023-02-28T16:15:42;13.90;1.00
1181;DHT22;579;52.046;8.532;2023-02-28T16:18:10;13.00;1.00
1181;DHT22;579;52.046;8.532;2023-02-28T16:20:37;11.90;1.00
1181;DHT22;579;52.046;8.532;2023-02-28T16:23:04;11.10;1.00
1181;DHT22;579;52.046;8.532;2023-02-28T16:25:34;10.70;1.00
1181;DHT22;579;52.046;8.532;2023-02-28T16:28:02;10.40;1.00
1181;DHT22;579;52.046;8.532;2023-02-28T16:30:29;10.20;1.00
1181;DHT22;579;52.046;8.532;2023-02-28T16:33:10;9.70;1.00
1181;DHT22;579;52.046;8.532;2023-02-28T16:35:36;9.50;1.00
1181;DHT22;579;52.046;8.532;2023-02-28T16:38:02;9.40;1.00
1181;DHT22;579;52.046;8.532;2023-02-28T16:40:33;9.20;1.00
1181;DHT22;579;52.046;8.532;2023-02-28T16:43:04;8.90;1.00
1181;DHT22;579;52.046;8.532;2023-02-28T16:45:31;8.80;1.00
1181;DHT22;579;52.046;8.532;2023-02-28T16:47:58;8.90;1.00
1181;DHT22;579;52.046;8.532;2023-02-28T16:50:26;8.70;1.00
1181;DHT22;579;52.046;8.532;2023-02-28T16:57:56;8.50;1.00
1181;DHT22;579;52.046;8.532;2023-02-28T17:00:24;8.30;1.00
1181;DHT22;579;52.046;8.532;2023-02-28T17:02:51;8.20;1.00
1181;DHT22;579;52.046;8.532;2023-02-28T17:05:17;8.00;1.00
1181;DHT22;579;52.046;8.532;2023-02-28T17:07:45;7.80;1.00
1181;DHT22;579;52.046;8.532;2023-02-28T17:10:14;7.60;1.00
1181;DHT22;579;52.046;8.532;2023-02-28T17:12:42;7.70;1.00
1181;DHT22;579;52.046;8.532;2023-02-28T17:20:14;7.20;1.00
1181;DHT22;579;52.046;8.532;2023-02-28T17:22:41;7.00;1.00
1181;DHT22;579;52.046;8.532;2023-02-28T17:25:09;7.00;1.00
1181;DHT22;579;52.046;8.532;2023-02-28T17:27:36;6.90;1.00
1181;DHT22;579;52.046;8.532;2023-02-28T17:30:03;6.60;1.00
1181;DHT22;579;52.046;8.532;2023-02-28T17:32:30;6.40;1.00
1181;DHT22;579;52.046;8.532;2023-02-28T17:34:56;6.20;1.00
1181;DHT22;579;52.046;8.532;2023-02-28T17:40:14;5.90;1.00
1181;DHT22;579;52.046;8.532;2023-02-28T17:42:41;5.70;1.00
1181;DHT22;579;52.046;8.532;2023-02-28T17:45:08;5.50;1.00
1181;DHT22;579;52.046;8.532;2023-02-28T17:47:35;5.60;1.00
1181;DHT22;579;52.046;8.532;2023-02-28T17:50:02;5.40;1.00
1181;DHT22;579;52.046;8.532;2023-02-28T17:52:28;5.50;1.00
1181;DHT22;579;52.046;8.532;2023-02-28T17:54:55;5.60;1.00
1181;DHT22;579;52.046;8.532;2023-02-28T17:57:22;5.50;1.00
1181;DHT22;579;52.046;8.532;2023-02-28T18:04:54;5.20;1.00
1181;DHT22;579;52.046;8.532;2023-02-28T18:07:20;4.90;1.00
1181;DHT22;579;52.046;8.532;2023-02-28T18:09:47;4.80;1.00
1181;DHT22;579;52.046;8.532;2023-02-28T18:12:13;5.00;1.00
1181;DHT22;579;52.046;8.532;2023-02-28T18:14:40;4.80;1.00
1181;DHT22;579;52.046;8.532;2023-02-28T18:17:09;4.70;1.00
1181;DHT22;579;52.046;8.532;2023-02-28T18:19:36;4.70;1.00
1181;DHT22;579;52.046;8.532;2023-02-28T18:24:41;4.70;1.00
1181;DHT22;579;52.046;8.532;2023-02-28T18:27:07;4.30;1.00
1181;DHT22;579;52.046;8.532;2023-02-28T18:29:35;4.30;1.00
1181;DHT22;579;52.046;8.532;2023-02-28T18:32:02;4.10;1.00
1181;DHT22;579;52.046;8.532;2023-02-28T18:34:30;4.00;1.00
1181;DHT22;579;52.046;8.532;2023-02-28T18:36:57;3.90;1.00
1181;DHT22;579;52.046;8.532;2023-02-28T18:39:23;3.70;1.00
1181;DHT22;579;52.046;8.532;2023-02-28T18:46:50;3.70;1.00
1181;DHT22;579;52.046;8.532;2023-02-28T18:49:16;3.70;1.00
1181;DHT22;579;52.046;8.532;2023-02-28T18:51:42;3.80;1.00
1181;DHT22;579;52.046;8.532;2023-02-28T18:54:10;3.90;1.00
1181;DHT22;579;52.046;8.532;2023-02-28T18:56:37;4.10;1.00
1181;DHT22;579;52.046;8.532;2023-02-28T18:59:03;4.10;1.00
1181;DHT22;579;52.046;8.532;2023-02-28T19:01:29;3.80;1.00
1181;DHT22;579;52.046;8.532;2023-02-28T19:10:49;3.70;1.00
1181;DHT22;579;52.046;8.532;2023-02-28T19:13:15;3.50;1.00
1181;DHT22;579;52.046;8.532;2023-02-28T19:15:42;3.50;1.00
1181;DHT22;579;52.046;8.532;2023-02-28T19:18:08;3.40;1.00
1181;DHT22;579;52.046;8.532;2023-02-28T19:20:35;3.20;1.00
1181;DHT22;579;52.046;8.532;2023-02-28T19:23:01;3.20;1.00
1181;DHT22;579;52.046;8.532;2023-02-28T19:25:27;3.20;1.00
1181;DHT22;579;52.046;8.532;2023-02-28T19:27:54;3.20;1.00
1181;DHT22;579;52.046;8.532;2023-02-28T19:35:26;3.20;1.00
1181;DHT22;579;52.046;8.532;2023-02-28T19:37:52;3.20;1.00
1181;DHT22;579;52.046;8.532;2023-02-28T19:40:18;3.20;1.00
1181;DHT22;579;52.046;8.532;2023-02-28T19:42:44;3.10;1.00
1181;DHT22;579;52.046;8.532;2023-02-28T19:45:11;3.30;1.00
1181;DHT22;579;52.046;8.532;2023-02-28T19:47:39;3.20;1.00
1181;DHT22;579;52.046;8.532;2023-02-28T19:50:06;3.10;1.00
1181;DHT22;579;52.046;8.532;2023-02-28T19:52:34;3.10;1.00
1181;DHT22;579;52.046;8.532;2023-02-28T20:00:06;3.00;1.00
1181;DHT22;579;52.046;8.532;2023-02-28T20:02:33;3.00;1.00
1181;DHT22;579;52.046;8.532;2023-02-28T20:05:00;2.90;1.00
1181;DHT22;579;52.046;8.532;2023-02-28T20:07:26;3.00;1.00
1181;DHT22;579;52.046;8.532;2023-02-28T20:09:52;3.00;1.00
1181;DHT22;579;52.046;8.532;2023-02-28T20:12:18;3.00;1.00
1181;DHT22;579;52.046;8.532;2023-02-28T20:14:47;3.00;1.00
1181;DHT22;579;52.046;8.532;2023-02-28T20:20:15;2.90;1.00
1181;DHT22;579;52.046;8.532;2023-02-28T20:22:41;2.60;1.00
1181;DHT22;579;52.046;8.532;2023-02-28T20:25:08;2.90;1.00
1181;DHT22;579;52.046;8.532;2023-02-28T20:27:36;2.60;1.00
1181;DHT22;579;52.046;8.532;2023-02-28T20:30:03;2.70;1.00
1181;DHT22;579;52.046;8.532;2023-02-28T20:32:30;2.60;1.00
1181;DHT22;579;52.046;8.532;2023-02-28T20:34:57;2.50;1.00
1181;DHT22;579;52.046;8.532;2023-02-28T20:42:27;2.50;1.00
1181;DHT22;579;52.046;8.532;2023-02-28T20:44:54;2.20;1.00
1181;DHT22;579;52.046;8.532;2023-02-28T20:47:20;2.20;1.00
1181;DHT22;579;52.046;8.532;2023-02-28T20:49:47;2.20;1.00
1181;DHT22;579;52.046;8.532;2023-02-28T20:52:13;2.20;1.00
1181;DHT22;579;52.046;8.532;2023-02-28T20:54:39;2.20;1.00
1181;DHT22;579;52.046;8.532;2023-02-28T20:57:06;2.20;1.00
1181;DHT22;579;52.046;8.532;2023-02-28T21:02:10;2.20;1.00
1181;DHT22;579;52.046;8.532;2023-02-28T21:04:39;2.30;1.00
1181;DHT22;579;52.046;8.532;2023-02-28T21:07:06;2.20;1.00
1181;DHT22;579;52.046;8.532;2023-02-28T21:09:32;2.10;1.00
1181;DHT22;579;52.046;8.532;2023-02-28T21:11:58;2.10;1.00
1181;DHT22;579;52.046;8.532;2023-02-28T21:14:24;2.00;1.00
1181;DHT22;579;52.046;8.532;2023-02-28T21:16:51;1.90;1.00